Time;durP1;ratioP1;P1;durP2;ratioP2;P2;SDS_P1;SDS_P2;PMS_P1;PMS_P2;Temp;Humidity;BMP_temperature;BMP_pressure;BME280_temperature;BME280_humidity;BME280_pressure;Samples;Min_cycle;Max_cycle;Signal;HPM_P1;HPM_P2
2023/11/23 00:01:52;;;;;;;1.77;1.00;;;;;;;-4.97;47.49;99725.75;5048485;28;20048;-74
2023/11/23 00:04:20;;;;;;;2.13;1.15;;;;;;;-4.47;47.28;99806.97;5053537;28;20070;-74
2023/11/23 00:06:48;;;;;;;2.92;1.15;;;;;;;-4.42;47.69;99797.94;5052936;28;20056;-74
2023/11/23 00:09:19;;;;;;;2.10;1.15;;;;;;;-4.33;47.27;99817.88;5068377;28;20044;-75
2023/11/23 00:11:48;;;;;;;1.08;0.88;;;;;;;-4.35;47.11;99792.38;5033534;28;20032;-77
2023/11/23 00:14:15;;;;;;;1.45;0.95;;;;;;;-4.42;47.36;99787.78;5034966;28;20111;-76
2023/11/23 00:16:43;;;;;;;1.05;0.70;;;;;;;-4.44;47.09;99797.00;5049225;28;20041;-75
2023/11/23 00:19:14;;;;;;;1.33;0.98;;;;;;;-4.60;47.37;99768.25;5056384;28;20040;-75
2023/11/23 00:21:43;;;;;;;1.02;0.80;;;;;;;-4.45;47.16;99790.16;5057360;28;20036;-74
2023/11/23 00:24:11;;;;;;;1.65;1.00;;;;;;;-4.50;47.32;99784.84;5053260;28;20528;-74
2023/11/23 00:26:42;;;;;;;1.58;0.90;;;;;;;-4.68;47.30;99759.38;5072436;28;20044;-77
2023/11/23 00:29:10;;;;;;;1.70;1.17;;;;;;;-4.81;47.30;99757.00;5051676;28;20126;-76
2023/11/23 00:31:37;;;;;;;4.45;1.20;;;;;;;-4.50;47.63;99800.09;5036130;28;20036;-76
2023/11/23 00:34:06;;;;;;;1.67;1.10;;;;;;;-4.56;48.17;99784.53;5069534;28;20041;-75
2023/11/23 00:36:37;;;;;;;2.22;1.05;;;;;;;-4.67;47.87;99765.34;5057156;28;20032;-75
2023/11/23 00:39:09;;;;;;;2.45;1.10;;;;;;;-4.93;48.20;99720.00;5050982;28;20132;-74
2023/11/23 00:41:39;;;;;;;2.35;1.13;;;;;;;-4.59;48.36;99777.63;5039731;28;20045;-75
2023/11/23 00:44:08;;;;;;;3.00;1.20;;;;;;;-4.56;48.62;99769.28;5056061;28;20067;-74
2023/11/23 00:46:51;;;;;;;2.40;1.30;;;;;;;-4.81;48.89;99734.16;5050879;28;20056;-71
2023/11/23 00:49:17;;;;;;;2.25;1.17;;;;;;;-4.77;49.11;99741.13;5059148;28;20055;-72
2023/11/23 00:51:46;;;;;;;2.40;1.00;;;;;;;-4.76;49.14;99764.06;5041768;28;20037;-72
2023/11/23 00:54:16;;;;;;;1.88;1.02;;;;;;;-4.77;49.05;99756.38;5068432;28;20079;-72
2023/11/23 00:56:45;;;;;;;3.22;1.10;;;;;;;-4.68;49.75;99749.22;5055163;28;20036;-74
2023/11/23 00:59:13;;;;;;;2.67;1.08;;;;;;;-5.09;49.89;99669.25;5053587;28;20086;-72
2023/11/23 01:01:42;;;;;;;2.38;1.00;;;;;;;-4.78;49.55;99724.16;5049553;28;20037;-73
2023/11/23 01:04:08;;;;;;;2.95;1.05;;;;;;;-5.01;49.41;99693.38;5030044;28;20120;-72
2023/11/23 01:06:34;;;;;;;2.65;1.27;;;;;;;-4.88;50.07;99720.28;5014822;28;20064;-72
2023/11/23 01:09:00;;;;;;;1.42;0.88;;;;;;;-4.82;50.17;99723.09;5026921;28;20092;-71
2023/11/23 01:11:26;;;;;;;1.58;0.90;;;;;;;-5.03;50.08;99689.88;5015674;28;20034;-72
2023/11/23 01:13:56;;;;;;;2.88;1.15;;;;;;;-4.85;50.58;99722.94;5026582;28;20052;-72
2023/11/23 01:16:22;;;;;;;1.95;1.20;;;;;;;-4.91;50.77;99705.72;5030800;28;20174;-73
2023/11/23 01:18:48;;;;;;;1.52;0.93;;;;;;;-5.20;50.59;99645.84;5014806;28;20063;-76
2023/11/23 01:21:14;;;;;;;1.65;1.08;;;;;;;-4.79;50.60;99712.25;5018358;28;20034;-76
2023/11/23 01:23:40;;;;;;;1.33;0.80;;;;;;;-4.95;50.65;99688.59;5035146;28;20033;-75
2023/11/23 01:26:07;;;;;;;2.00;0.90;;;;;;;-4.94;50.33;99675.09;5012736;28;20091;-75
2023/11/23 01:28:33;;;;;;;2.45;1.10;;;;;;;-4.86;51.08;99670.44;5027798;28;20041;-74
2023/11/23 01:31:02;;;;;;;2.50;1.05;;;;;;;-4.72;50.45;99699.03;5027387;28;20037;-76
2023/11/23 01:33:30;;;;;;;2.28;1.20;;;;;;;-4.60;50.43;99681.91;5027909;28;20921;-76
2023/11/23 01:35:56;;;;;;;5.63;1.10;;;;;;;-4.68;50.21;99683.19;5030072;28;20087;-75
2023/11/23 01:38:27;;;;;;;2.50;1.25;;;;;;;-4.61;50.14;99685.25;5031037;28;20080;-77
2023/11/23 01:40:56;;;;;;;2.35;1.00;;;;;;;-4.57;50.06;99674.44;5028580;28;21493;-76
2023/11/23 01:43:22;;;;;;;1.42;0.90;;;;;;;-4.72;50.17;99658.41;5000771;28;20033;-75
2023/11/23 01:45:49;;;;;;;1.90;1.02;;;;;;;-4.67;49.84;99669.69;5019703;28;20037;-76
2023/11/23 01:48:15;;;;;;;1.65;1.00;;;;;;;-4.75;50.23;99665.91;5031827;28;20037;-75
2023/11/23 01:51:03;;;;;;;1.90;1.15;;;;;;;-5.18;50.03;99594.38;5016778;28;20041;-75
2023/11/23 01:53:32;;;;;;;1.63;1.10;;;;;;;-5.07;50.26;99601.69;5012182;28;20071;-75
2023/11/23 01:56:02;;;;;;;10.48;1.75;;;;;;;-4.86;50.26;99648.44;5030188;28;20038;-78
2023/11/23 01:58:29;;;;;;;2.15;1.30;;;;;;;-4.81;50.04;99630.03;5019091;28;20052;-75
2023/11/23 02:00:56;;;;;;;1.88;1.00;;;;;;;-4.71;50.04;99634.78;5021481;28;20117;-75
2023/11/23 02:03:22;;;;;;;2.22;1.15;;;;;;;-4.78;49.51;99630.19;5049900;28;20037;-76
2023/11/23 02:05:48;;;;;;;1.00;0.82;;;;;;;-4.82;49.62;99639.31;5037174;28;20040;-76
2023/11/23 02:08:15;;;;;;;1.42;0.82;;;;;;;-4.64;49.37;99656.28;5064721;28;20403;-75
2023/11/23 02:10:42;;;;;;;1.65;0.90;;;;;;;-4.64;49.21;99663.91;5062854;28;20037;-74
2023/11/23 02:13:08;;;;;;;3.78;1.10;;;;;;;-5.12;49.63;99603.09;5049127;28;20113;-72
2023/11/23 02:15:37;;;;;;;1.50;0.65;;;;;;;-4.89;49.09;99663.53;5049642;28;20069;-73
2023/11/23 02:18:12;;;;;;;2.38;0.90;;;;;;;-4.89;49.25;99673.69;5048661;28;20033;-74
2023/11/23 02:20:47;;;;;;;1.63;0.95;;;;;;;-5.17;49.06;99630.78;5032353;28;20030;-73
2023/11/23 02:23:13;;;;;;;2.10;1.08;;;;;;;-5.35;49.33;99591.00;5067650;28;20063;-73
2023/11/23 02:25:44;;;;;;;5.40;0.77;;;;;;;-4.87;48.88;99664.47;5053584;28;20090;-73
2023/11/23 02:28:12;;;;;;;2.33;1.00;;;;;;;-4.86;49.29;99648.44;5064201;28;20036;-74
2023/11/23 02:30:41;;;;;;;1.13;0.80;;;;;;;-5.21;49.03;99595.91;5036613;28;20518;-73
2023/11/23 02:33:08;;;;;;;1.50;1.02;;;;;;;-5.48;49.57;99551.44;5039646;28;20049;-72
2023/11/23 02:35:41;;;;;;;1.17;0.70;;;;;;;-5.15;49.03;99606.38;5050102;28;20522;-74
2023/11/23 02:38:07;;;;;;;1.63;0.75;;;;;;;-5.03;49.60;99634.03;5033720;28;20179;-74
2023/11/23 02:40:36;;;;;;;1.52;0.85;;;;;;;-5.01;49.53;99637.53;5048955;28;20056;-75
2023/11/23 02:43:10;;;;;;;1.15;0.80;;;;;;;-5.03;50.02;99644.19;5044660;28;20055;-73
2023/11/23 02:45:39;;;;;;;2.38;0.93;;;;;;;-5.34;50.08;99575.00;5052018;28;20071;-73
2023/11/23 02:48:08;;;;;;;1.17;0.80;;;;;;;-4.98;49.78;99627.53;5048254;28;20139;-73
2023/11/23 02:50:34;;;;;;;2.08;0.88;;;;;;;-5.03;50.16;99599.38;5015110;28;20062;-74
2023/11/23 02:53:03;;;;;;;2.38;1.00;;;;;;;-5.12;49.88;99582.81;5050664;28;20134;-73
2023/11/23 02:55:30;;;;;;;1.88;0.88;;;;;;;-5.40;49.82;99556.91;5034581;28;20052;-73
2023/11/23 02:57:57;;;;;;;1.25;0.73;;;;;;;-5.15;50.07;99602.16;5031290;28;20044;-74
2023/11/23 03:00:29;;;;;;;1.63;0.75;;;;;;;-5.02;49.76;99605.31;5030331;28;20134;-76
2023/11/23 03:02:55;;;;;;;2.17;1.05;;;;;;;-5.17;49.79;99570.75;5052710;28;20052;-76
2023/11/23 03:05:22;;;;;;;1.58;0.88;;;;;;;-5.25;49.93;99554.28;5048222;28;20044;-73
2023/11/23 03:07:51;;;;;;;1.60;1.00;;;;;;;-5.00;50.12;99591.06;5051421;28;20041;-74
2023/11/23 03:10:20;;;;;;;1.27;0.88;;;;;;;-5.02;50.19;99582.47;5022366;28;20094;-76
2023/11/23 03:12:47;;;;;;;2.03;1.10;;;;;;;-4.94;50.31;99575.25;5041195;28;20618;-77
2023/11/23 03:15:13;;;;;;;2.40;0.90;;;;;;;-5.19;50.67;99518.19;5052458;28;20559;-77
2023/11/23 03:17:42;;;;;;;2.78;1.15;;;;;;;-5.06;50.59;99552.66;5041254;28;20074;-74
2023/11/23 03:20:10;;;;;;;2.13;1.00;;;;;;;-5.12;50.44;99537.13;5046759;28;20534;-75
2023/11/23 03:22:36;;;;;;;1.52;0.88;;;;;;;-4.94;50.59;99568.50;5069976;28;20056;-76
2023/11/23 03:25:04;;;;;;;1.90;1.08;;;;;;;-5.23;50.86;99511.22;5056226;28;20033;-77
2023/11/23 03:27:36;;;;;;;1.92;1.00;;;;;;;-4.87;50.71;99565.47;5052572;28;20068;-76
2023/11/23 03:30:05;;;;;;;3.42;1.00;;;;;;;-5.02;50.91;99504.66;5058623;28;20497;-77
2023/11/23 03:32:32;;;;;;;1.85;0.90;;;;;;;-4.93;51.13;99506.78;5051887;28;20056;-77
2023/11/23 03:34:59;;;;;;;1.42;0.82;;;;;;;-4.82;51.21;99514.91;5072512;28;20040;-77
2023/11/23 03:37:27;;;;;;;0.73;0.60;;;;;;;-5.05;50.76;99496.03;5055015;28;20045;-79
2023/11/23 03:39:55;;;;;;;1.67;0.75;;;;;;;-5.06;51.12;99501.91;5076645;28;20068;-78
2023/11/23 03:42:23;;;;;;;0.98;0.77;;;;;;;-5.02;50.78;99514.81;5059665;28;20055;-78
2023/11/23 03:45:00;;;;;;;1.25;0.68;;;;;;;-5.47;50.84;99422.97;5080801;28;20036;-74
2023/11/23 03:47:32;;;;;;;;;;;;;;;-4.85;50.64;99508.03;5050687;28;20044;-76
2023/11/23 03:50:01;;;;;;;1.20;0.68;;;;;;;-5.20;50.84;99446.28;5041548;28;19923;-77
2023/11/23 03:52:29;;;;;;;1.33;0.60;;;;;;;-4.88;50.99;99502.78;5059522;28;20037;-76
2023/11/23 03:54:56;;;;;;;1.15;0.70;;;;;;;-4.81;50.49;99500.56;5039625;28;20041;-77
2023/11/23 03:57:22;;;;;;;1.90;1.08;;;;;;;-5.12;50.23;99439.03;5056408;28;20044;-76
2023/11/23 03:59:48;;;;;;;1.17;0.85;;;;;;;-4.91;50.34;99461.16;5074467;28;20037;-76
2023/11/23 04:02:17;;;;;;;0.77;0.50;;;;;;;-4.81;50.01;99481.09;5052759;28;20045;-77
2023/11/23 04:04:44;;;;;;;1.77;0.88;;;;;;;-4.87;49.64;99451.22;5068898;28;20045;-75
2023/11/23 04:07:10;;;;;;;2.75;0.90;;;;;;;-4.65;49.55;99492.88;5025914;28;20045;-73
2023/11/23 04:09:39;;;;;;;4.28;0.95;;;;;;;-5.11;49.82;99409.44;5055115;28;20128;-76
2023/11/23 04:12:06;;;;;;;2.40;0.90;;;;;;;-4.91;49.31;99456.94;5054755;28;20419;-73
2023/11/23 04:14:38;;;;;;;1.27;0.95;;;;;;;-4.88;49.27;99459.63;5054546;28;20060;-74
2023/11/23 04:17:06;;;;;;;1.95;0.98;;;;;;;-4.71;49.76;99470.59;5039394;28;20407;-73
2023/11/23 04:19:33;;;;;;;2.38;1.10;;;;;;;-4.69;49.83;99453.75;5053785;28;20045;-72
2023/11/23 04:21:59;;;;;;;1.00;0.75;;;;;;;-4.54;49.15;99461.22;5039457;28;20045;-72
2023/11/23 04:24:41;;;;;;;3.08;1.05;;;;;;;-4.96;49.17;99389.84;5056622;28;20045;-74
2023/11/23 04:27:11;;;;;;;1.90;0.90;;;;;;;-4.91;49.27;99388.41;5059011;28;20041;-73
2023/11/23 04:29:40;;;;;;;2.75;1.50;;;;;;;-4.92;48.94;99370.59;5051856;28;20072;-72
2023/11/23 04:32:14;;;;;;;1.40;1.10;;;;;;;-5.42;49.32;99307.38;5057933;28;20041;-77
2023/11/23 04:34:41;;;;;;;1.80;0.95;;;;;;;-4.48;48.98;99457.22;5041145;28;20495;-78
2023/11/23 04:37:07;;;;;;;2.45;1.15;;;;;;;-4.51;49.01;99439.28;5042349;28;20089;-77
2023/11/23 04:39:39;;;;;;;2.92;1.20;;;;;;;-4.46;48.70;99458.16;5054853;28;20033;-75
2023/11/23 04:42:05;;;;;;;1.80;1.10;;;;;;;-4.96;48.43;99387.31;5053782;28;20060;-77
2023/11/23 04:44:31;;;;;;;1.60;1.00;;;;;;;-4.51;48.85;99439.28;5049052;28;20053;-75
2023/11/23 04:46:57;;;;;;;2.92;1.10;;;;;;;-4.50;48.56;99438.50;5066121;28;20498;-75
2023/11/23 04:49:24;;;;;;;2.88;1.20;;;;;;;-4.60;48.79;99434.66;5058130;28;20812;-74
2023/11/23 04:51:51;;;;;;;2.83;1.63;;;;;;;-5.01;48.33;99378.66;5054286;28;20039;-73
2023/11/23 04:54:21;;;;;;;2.95;1.50;;;;;;;-4.75;48.50;99428.09;5041297;28;20045;-74
2023/11/23 04:56:51;;;;;;;2.10;1.20;;;;;;;-5.03;48.06;99408.16;5038523;28;20131;-74
2023/11/23 04:59:18;;;;;;;1.58;0.85;;;;;;;-5.12;48.20;99403.53;5071029;28;20050;-74
2023/11/23 05:01:47;;;;;;;2.58;1.02;;;;;;;-5.17;47.97;99398.19;5037672;28;20033;-74
2023/11/23 05:04:13;;;;;;;2.67;1.10;;;;;;;-5.29;48.60;99377.34;5033298;28;20044;-73
2023/11/23 05:06:40;;;;;;;1.33;1.08;;;;;;;-5.19;48.30;99401.47;5037001;28;20046;-74
2023/11/23 05:09:07;;;;;;;1.55;0.93;;;;;;;-5.18;48.56;99405.75;5035079;28;20096;-72
2023/11/23 05:11:33;;;;;;;2.33;1.08;;;;;;;-5.06;48.24;99408.00;5018738;28;20524;-73
2023/11/23 05:14:09;;;;;;;1.73;1.13;;;;;;;-5.13;47.97;99373.88;5003896;28;20063;-72
2023/11/23 05:16:35;;;;;;;3.05;1.05;;;;;;;-5.10;48.10;99383.28;5034194;28;20041;-74
2023/11/23 05:19:02;;;;;;;2.15;0.75;;;;;;;-5.06;47.84;99390.25;5004590;28;20072;-73
2023/11/23 05:21:29;;;;;;;2.97;1.85;;;;;;;-5.21;47.90;99376.03;5016055;28;20045;-73
2023/11/23 05:23:55;;;;;;;2.30;1.33;;;;;;;-5.24;48.05;99383.50;5034983;28;20037;-74
2023/11/23 05:26:28;;;;;;;2.65;1.45;;;;;;;-5.25;47.78;99373.25;5035157;28;20037;-76
2023/11/23 05:29:03;;;;;;;1.92;1.23;;;;;;;-5.41;47.88;99361.53;5036294;28;20091;-76
2023/11/23 05:31:30;;;;;;;1.00;0.90;;;;;;;-5.46;47.98;99367.25;5030619;28;20037;-75
2023/11/23 05:33:59;;;;;;;2.40;1.38;;;;;;;-5.62;48.00;99339.38;5019006;28;20041;-75
2023/11/23 05:36:25;;;;;;;3.33;1.10;;;;;;;-5.76;47.97;99310.84;5037430;28;20045;-74
2023/11/23 05:38:51;;;;;;;2.60;1.15;;;;;;;-5.64;47.94;99335.94;5038326;28;20056;-75
2023/11/23 05:41:17;;;;;;;2.42;1.10;;;;;;;-5.73;47.93;99325.34;5029885;28;20029;-74
2023/11/23 05:43:47;;;;;;;2.05;0.98;;;;;;;-5.66;48.15;99365.41;5018803;28;20037;-75
2023/11/23 05:46:16;;;;;;;1.35;0.85;;;;;;;-5.89;47.67;99319.53;5043256;28;20052;-73
2023/11/23 05:48:44;;;;;;;1.52;1.00;;;;;;;-5.81;47.91;99347.78;5035879;28;20034;-75
2023/11/23 05:51:16;;;;;;;2.13;1.10;;;;;;;-6.09;47.89;99326.16;5034027;28;20051;-76
2023/11/23 05:53:45;;;;;;;4.70;1.23;;;;;;;-5.87;48.21;99373.69;5002179;28;20041;-75
2023/11/23 05:56:14;;;;;;;5.15;1.25;;;;;;;-5.91;47.90;99365.06;5033022;28;20042;-76
2023/11/23 05:58:40;;;;;;;1.92;1.30;;;;;;;-5.88;48.74;99359.28;5035410;28;20507;-75
2023/11/23 06:01:06;;;;;;;1.65;0.98;;;;;;;-6.31;48.22;99276.97;5018369;28;20048;-73
2023/11/23 06:03:34;;;;;;;6.18;1.77;;;;;;;-5.78;48.47;99356.41;5040841;28;20042;-78
2023/11/23 06:06:01;;;;;;;1.92;0.88;;;;;;;-5.78;48.26;99358.94;5037290;28;20124;-75
2023/11/23 06:08:27;;;;;;;2.00;1.20;;;;;;;-6.16;48.14;99288.63;5046250;28;20037;-73
2023/11/23 06:10:58;;;;;;;2.35;1.30;;;;;;;-5.83;48.55;99359.50;5047854;28;20047;-72
2023/11/23 06:13:36;;;;;;;2.90;1.50;;;;;;;-5.92;48.60;99330.38;5017968;28;20116;-73
2023/11/23 06:16:04;;;;;;;4.38;1.42;;;;;;;-5.82;48.81;99329.16;5033851;28;20072;-73
2023/11/23 06:18:33;;;;;;;2.22;1.20;;;;;;;-5.95;48.35;99288.81;5049419;28;20037;-74
2023/11/23 06:21:01;;;;;;;2.30;1.23;;;;;;;-5.72;48.45;99319.47;5030988;28;20879;-73
2023/11/23 06:23:30;;;;;;;2.13;1.20;;;;;;;-5.61;49.08;99323.38;5033105;28;20037;-73
2023/11/23 06:26:01;;;;;;;4.63;1.15;;;;;;;-5.75;48.31;99285.56;5050289;28;20516;-80
2023/11/23 06:28:28;;;;;;;3.05;1.40;;;;;;;-5.94;48.71;99234.78;5040318;28;20128;-78
2023/11/23 06:30:57;;;;;;;5.57;1.92;;;;;;;-5.72;48.63;99289.06;5035488;28;20061;-79
2023/11/23 06:33:25;;;;;;;3.58;1.40;;;;;;;-5.93;48.54;99246.66;5045221;28;20109;-77
2023/11/23 06:35:54;;;;;;;2.63;1.13;;;;;;;-5.65;48.67;99291.94;5042853;28;20042;-79
2023/11/23 06:38:21;;;;;;;3.30;1.00;;;;;;;-5.68;49.02;99294.34;5028969;28;20045;-75
2023/11/23 06:40:48;;;;;;;2.85;1.20;;;;;;;-5.85;48.63;99268.19;5037247;28;20526;-83
2023/11/23 06:43:41;;;;;;;2.30;0.90;;;;;;;-6.06;48.97;99243.56;5038594;28;20052;-82
2023/11/23 06:46:10;;;;;;;1.52;1.02;;;;;;;-6.50;49.54;99148.56;5050776;28;20103;-75
2023/11/23 06:48:38;;;;;;;1.70;1.17;;;;;;;-6.59;49.11;99116.06;5037572;28;20049;-81
2023/11/23 06:51:05;;;;;;;1.92;0.98;;;;;;;-5.69;49.32;99244.41;5035716;28;20037;-77
2023/11/23 06:53:43;;;;;;;2.47;1.10;;;;;;;-5.84;49.34;99229.34;5051591;28;20454;-82
2023/11/23 06:56:12;;;;;;;5.13;1.10;;;;;;;-5.73;48.89;99246.75;5049895;28;20415;-79
2023/11/23 06:58:51;;;;;;;2.20;1.20;;;;;;;-5.86;49.57;99209.81;5049154;28;20046;-77
2023/11/23 07:01:18;;;;;;;1.63;0.95;;;;;;;-5.76;49.08;99219.59;5058300;28;20113;-76
2023/11/23 07:03:47;;;;;;;1.70;1.20;;;;;;;-5.64;49.67;99232.00;5054397;28;20051;-76
2023/11/23 07:06:18;;;;;;;4.72;1.10;;;;;;;-5.64;49.16;99221.84;5058454;28;20050;-76
2023/11/23 07:08:49;;;;;;;2.40;1.40;;;;;;;-6.01;49.04;99159.31;5049619;28;20040;-77
2023/11/23 07:11:26;;;;;;;3.72;1.20;;;;;;;-5.72;49.00;99221.47;5067038;28;20056;-73
2023/11/23 07:14:13;;;;;;;3.38;1.20;;;;;;;-5.99;49.15;99177.94;5058894;28;20044;-73
2023/11/23 07:16:40;;;;;;;2.90;0.93;;;;;;;-5.76;49.40;99202.72;5059250;28;20057;-76
2023/11/23 07:19:06;;;;;;;2.25;1.10;;;;;;;-6.09;49.39;99137.03;5044485;28;20166;-73
2023/11/23 07:21:32;;;;;;;2.10;1.35;;;;;;;-5.96;49.03;99153.66;5056222;28;20058;-72
2023/11/23 07:23:58;;;;;;;1.60;1.10;;;;;;;-5.93;49.47;99147.84;5038324;28;20525;-77
2023/11/23 07:26:24;;;;;;;8.10;1.38;;;;;;;-5.77;49.48;99159.56;5056954;28;20119;-75
2023/11/23 07:28:56;;;;;;;6.15;1.48;;;;;;;-6.11;49.43;99079.47;5072615;28;20044;-85
2023/11/23 07:31:22;;;;;;;2.58;1.23;;;;;;;-5.73;49.06;99130.16;5079791;28;20032;-78
2023/11/23 07:33:53;;;;;;;2.78;1.30;;;;;;;-6.02;49.39;99054.56;5058381;28;20049;-79
2023/11/23 07:36:21;;;;;;;1.93;0.90;;;;;;;-5.26;49.22;99126.31;5079830;28;20066;-81
2023/11/23 07:38:58;;;;;;;1.60;1.02;;;;;;;-5.32;48.81;99082.94;5077535;28;20041;-75
2023/11/23 07:41:27;;;;;;;1.80;0.90;;;;;;;-4.72;48.87;99140.41;5073888;28;20087;-79
2023/11/23 07:43:57;;;;;;;2.55;1.00;;;;;;;-4.90;48.55;99050.00;5060936;28;20090;-80
2023/11/23 07:46:29;;;;;;;1.52;1.15;;;;;;;-4.10;48.16;99142.94;5077872;28;20056;-78
2023/11/23 07:49:00;;;;;;;7.03;1.40;;;;;;;-3.82;48.12;99103.28;5063769;28;20192;-80
2023/11/23 07:51:28;;;;;;;4.90;1.55;;;;;;;-3.84;47.40;99092.19;5058223;28;20059;-82
2023/11/23 07:53:55;;;;;;;2.25;1.25;;;;;;;-4.73;46.86;98983.81;5078388;28;20043;-79
2023/11/23 07:56:22;;;;;;;1.60;1.00;;;;;;;-4.08;47.33;99100.63;5061938;28;20078;-78
2023/11/23 07:58:56;;;;;;;2.80;1.20;;;;;;;-4.97;47.18;98921.16;5043703;28;20072;-79
2023/11/23 08:01:22;;;;;;;3.00;1.23;;;;;;;-3.59;47.35;99099.06;5078854;28;20068;-80
2023/11/23 08:03:48;;;;;;;3.72;1.50;;;;;;;-3.81;47.02;99052.50;5076671;28;20048;-79
2023/11/23 08:06:17;;;;;;;5.15;1.55;;;;;;;-3.50;47.28;99076.50;5078926;28;20127;-76
2023/11/23 08:08:53;;;;;;;3.35;1.30;;;;;;;-4.51;46.50;98934.72;5059409;28;20037;-82
2023/11/23 08:11:22;;;;;;;1.85;1.40;;;;;;;-4.29;46.59;98991.41;5060709;28;20032;-79
2023/11/23 08:14:00;;;;;;;2.97;1.38;;;;;;;-4.49;46.91;98957.63;5058305;28;20041;-79
2023/11/23 08:16:34;;;;;;;1.80;1.20;;;;;;;-4.44;46.77;98945.97;5076803;28;20067;-78
2023/11/23 08:19:00;;;;;;;3.55;1.42;;;;;;;-3.79;46.88;99005.13;5063348;28;20044;-76
2023/11/23 08:21:26;;;;;;;4.38;1.55;;;;;;;-3.85;47.01;98932.81;5063261;28;20041;-79
2023/11/23 08:24:06;;;;;;;6.05;1.27;;;;;;;-3.39;46.92;98969.16;5078937;28;20033;-77
2023/11/23 08:26:35;;;;;;;3.97;1.48;;;;;;;-3.36;45.73;98980.28;5061513;28;20043;-78
2023/11/23 08:29:24;;;;;;;4.13;1.40;;;;;;;-3.36;46.10;98990.47;5067750;28;20062;-78
2023/11/23 08:31:52;;;;;;;2.90;1.70;;;;;;;-3.34;46.34;98973.59;5063177;28;20078;-77
2023/11/23 08:34:50;;;;;;;1.83;1.17;;;;;;;-3.49;46.10;98962.91;5062787;28;20040;-77
2023/11/23 08:37:17;;;;;;;2.97;1.45;;;;;;;-3.91;45.81;98846.19;5062556;28;20071;-79
2023/11/23 08:40:54;;;;;;;;;;;;;;;;;;;;;
2023/11/23 08:47:50;;;;;;;3.78;1.50;;;;;;;-3.31;45.31;98855.78;5079432;28;20037;-73
2023/11/23 08:50:20;;;;;;;2.85;1.40;;;;;;;-2.97;45.13;98933.19;4975420;28;20491;-74
2023/11/23 08:52:49;;;;;;;2.00;1.42;;;;;;;-3.41;44.88;98917.34;5081644;28;20068;-74
2023/11/23 08:55:19;;;;;;;4.93;1.58;;;;;;;-3.51;45.39;98891.59;5045682;28;20044;-72
2023/11/23 08:58:25;;;;;;;3.35;1.10;;;;;;;-3.34;45.41;98906.56;5058923;28;20636;-74
2023/11/23 09:00:59;;;;;;;2.22;1.35;;;;;;;-3.76;45.46;98856.88;5066098;28;20263;-73
2023/11/23 09:03:26;;;;;;;4.63;1.40;;;;;;;-3.55;44.87;98896.53;5042050;28;20061;-72
2023/11/23 09:05:54;;;;;;;2.97;1.40;;;;;;;-4.28;45.85;98782.25;5034485;28;20407;-76
2023/11/23 09:08:25;;;;;;;1.90;1.23;;;;;;;-3.61;45.53;98875.97;5021330;28;20049;-73
2023/11/23 09:11:01;;;;;;;2.05;1.20;;;;;;;-3.77;46.02;98844.97;5034249;28;20144;-72
2023/11/23 09:13:31;;;;;;;3.75;1.60;;;;;;;-4.02;45.86;98759.41;5034446;28;20052;-72
2023/11/23 09:16:22;;;;;;;2.72;1.40;;;;;;;-3.13;45.74;98868.19;5035741;28;20057;-68
2023/11/23 09:18:48;;;;;;;5.20;1.73;;;;;;;-3.88;45.08;98754.78;5044401;28;20041;-70
2023/11/23 09:21:19;;;;;;;2.08;1.27;;;;;;;-4.06;45.40;98755.03;5017584;28;20060;-74
2023/11/23 09:23:55;;;;;;;5.35;1.85;;;;;;;-4.24;45.42;98744.31;5034805;28;20041;-73
2023/11/23 09:26:24;;;;;;;8.90;1.95;;;;;;;-4.36;45.29;98743.91;5026001;28;20079;-71
2023/11/23 09:28:50;;;;;;;3.35;1.40;;;;;;;-4.69;45.78;98681.84;5023019;28;20499;-70
2023/11/23 09:31:25;;;;;;;2.20;1.45;;;;;;;-3.87;45.37;98774.31;5018169;28;20033;-70
2023/11/23 09:34:03;;;;;;;6.93;2.28;;;;;;;-3.63;45.44;98787.78;5017923;28;20050;-73
2023/11/23 09:36:43;;;;;;;2.95;1.38;;;;;;;-3.61;45.14;98814.94;5019396;28;20049;-72
2023/11/23 09:39:20;;;;;;;6.40;1.63;;;;;;;-3.81;45.71;98805.00;5037134;28;20038;-71
2023/11/23 09:42:01;;;;;;;4.53;1.75;;;;;;;-4.24;45.11;98746.84;5034591;28;20041;-73
2023/11/23 09:44:38;;;;;;;3.45;1.25;;;;;;;-3.88;45.36;98792.91;5013932;28;20041;-72
2023/11/23 09:47:08;;;;;;;5.20;1.30;;;;;;;-4.47;45.72;98694.41;5029858;28;20049;-70
2023/11/23 09:49:41;;;;;;;3.30;1.73;;;;;;;-4.19;45.42;98763.94;5033527;28;20029;-78
2023/11/23 09:52:11;;;;;;;2.55;1.13;;;;;;;-5.11;45.56;98602.56;5032125;28;20048;-72
2023/11/23 09:54:40;;;;;;;2.65;1.27;;;;;;;-4.44;45.44;98732.59;5030553;28;20578;-73
2023/11/23 09:57:06;;;;;;;3.95;1.30;;;;;;;-4.83;45.67;98652.56;5067335;28;20051;-74
2023/11/23 09:59:42;;;;;;;5.20;1.55;;;;;;;-4.67;45.82;98646.34;5023958;28;20140;-70
2023/11/23 10:02:19;;;;;;;4.18;1.60;;;;;;;-4.50;45.89;98652.00;5009882;28;20065;-71
2023/11/23 10:04:48;;;;;;;2.63;1.33;;;;;;;-4.82;45.76;98623.00;5023364;28;20071;-71
2023/11/23 10:07:17;;;;;;;2.72;1.40;;;;;;;-4.39;46.00;98672.66;5043083;28;20053;-71
2023/11/23 10:09:44;;;;;;;4.28;1.38;;;;;;;-4.54;46.03;98651.03;5021365;28;20045;-74
2023/11/23 10:12:11;;;;;;;2.05;1.10;;;;;;;-4.30;46.12;98680.56;5007384;28;20054;-74
2023/11/23 10:14:40;;;;;;;3.60;1.10;;;;;;;-4.54;46.24;98624.78;5027935;28;20176;-72
2023/11/23 10:17:44;;;;;;;5.82;1.35;;;;;;;-4.14;45.51;98689.56;4997586;28;20044;-70
2023/11/23 10:20:34;;;;;;;3.33;1.08;;;;;;;-4.42;46.15;98654.78;5008324;28;20033;-73
2023/11/23 10:23:04;;;;;;;2.20;0.95;;;;;;;-4.32;45.67;98679.69;5016223;28;20033;-79
2023/11/23 10:25:35;;;;;;;2.45;1.10;;;;;;;-4.92;46.20;98577.00;5001569;28;20101;-75
2023/11/23 10:28:05;;;;;;;5.45;1.20;;;;;;;-4.49;46.01;98647.78;5004911;28;20178;-77
2023/11/23 10:30:31;;;;;;;6.03;1.20;;;;;;;-4.78;45.98;98617.22;5007233;28;20034;-76
2023/11/23 10:33:09;;;;;;;3.67;1.67;;;;;;;-4.79;46.19;98618.03;5021979;28;20041;-74
2023/11/23 10:35:41;;;;;;;7.63;1.70;;;;;;;-4.82;46.19;98617.91;5020052;28;20505;-73
2023/11/23 10:38:08;;;;;;;8.45;2.10;;;;;;;-5.36;46.09;98534.09;5021301;28;20507;-72
2023/11/23 10:40:34;;;;;;;3.70;1.75;;;;;;;-4.94;46.60;98583.69;5019352;28;20128;-73
2023/11/23 10:43:01;;;;;;;1.52;1.10;;;;;;;-5.18;46.17;98550.75;5022643;28;20052;-73
2023/11/23 10:45:37;;;;;;;2.50;1.17;;;;;;;-4.84;46.35;98606.03;5017862;28;20105;-77
2023/11/23 10:48:04;;;;;;;5.07;1.38;;;;;;;-4.82;46.18;98597.63;5020350;28;20044;-75
2023/11/23 10:50:31;;;;;;;4.78;1.50;;;;;;;-4.85;46.77;98581.47;5006792;28;20037;-74
2023/11/23 10:53:01;;;;;;;6.70;1.83;;;;;;;-4.96;46.35;98564.16;5020528;28;20045;-72
2023/11/23 10:55:27;;;;;;;3.65;1.48;;;;;;;-4.88;47.03;98568.66;5002350;28;20033;-72
2023/11/23 10:58:14;;;;;;;5.18;1.50;;;;;;;-5.05;46.36;98539.34;5019399;28;22024;-70
2023/11/23 11:00:41;;;;;;;1.83;0.90;;;;;;;-4.78;46.87;98589.28;5022474;28;20542;-69
2023/11/23 11:03:09;;;;;;;6.28;1.20;;;;;;;-5.02;46.70;98557.22;5059240;28;20044;-68
2023/11/23 11:05:37;;;;;;;6.75;1.33;;;;;;;-5.00;46.96;98540.38;5047583;28;20422;-68
2023/11/23 11:08:07;;;;;;;5.20;1.45;;;;;;;-5.10;46.86;98540.84;5031998;28;20559;-69
2023/11/23 11:10:48;;;;;;;3.88;1.25;;;;;;;-5.12;47.04;98518.00;5044625;28;20036;-69
2023/11/23 11:13:23;;;;;;;5.38;1.77;;;;;;;-5.10;46.93;98502.81;5059524;28;20090;-69
2023/11/23 11:15:56;;;;;;;1.33;0.90;;;;;;;-5.03;46.72;98543.66;5033229;28;20051;-68
2023/11/23 11:18:27;;;;;;;2.70;1.10;;;;;;;-5.67;46.83;98416.41;5011674;28;20064;-69
2023/11/23 11:21:07;;;;;;;3.45;1.65;;;;;;;-5.26;46.98;98498.88;5029031;28;20041;-70
2023/11/23 11:23:51;;;;;;;2.80;1.17;;;;;;;-5.15;46.99;98500.97;5026572;28;20131;-69
2023/11/23 11:26:27;;;;;;;6.28;1.40;;;;;;;-5.22;47.60;98488.03;5061026;28;20127;-70
2023/11/23 11:29:06;;;;;;;6.60;1.13;;;;;;;-5.46;47.26;98459.38;5043016;28;20059;-70
2023/11/23 11:31:37;;;;;;;7.03;1.20;;;;;;;-5.41;47.51;98463.75;5027289;28;20622;-71
2023/11/23 11:34:26;;;;;;;2.58;1.10;;;;;;;-5.28;47.22;98455.72;5058765;28;20045;-69
2023/11/23 11:37:01;;;;;;;4.75;1.38;;;;;;;-5.21;47.75;98446.63;5062628;28;20041;-76
2023/11/23 11:39:32;;;;;;;1.95;1.20;;;;;;;-5.54;47.19;98394.88;5046801;28;20044;-71
2023/11/23 11:42:03;;;;;;;1.88;1.27;;;;;;;-5.37;47.83;98424.97;5043382;28;20037;-68
2023/11/23 11:44:34;;;;;;;2.92;1.50;;;;;;;-5.75;47.80;98395.88;5058401;28;20041;-71
2023/11/23 11:47:00;;;;;;;3.20;1.30;;;;;;;-5.61;47.49;98418.28;5061774;28;20063;-74
2023/11/23 11:49:27;;;;;;;3.67;1.52;;;;;;;-6.24;48.09;98333.44;5057382;28;20083;-73
2023/11/23 11:51:53;;;;;;;4.38;1.20;;;;;;;-5.72;48.75;98404.41;5031499;28;20494;-72
2023/11/23 11:54:30;;;;;;;3.38;1.10;;;;;;;-6.08;48.96;98328.13;5028333;28;20211;-76